createdAt,value
2022-08-21T00:01:58.293Z,12.76
2022-08-21T00:04:29.495Z,12.94
2022-08-21T00:06:59.201Z,12.65
2022-08-21T00:09:31.448Z,12.66
2022-08-21T00:11:59.439Z,12.66
2022-08-21T00:14:27.653Z,12.57
2022-08-21T00:17:00.480Z,12.37
2022-08-21T00:19:30.976Z,12.43
2022-08-21T00:22:00.221Z,12.39
2022-08-21T00:24:28.687Z,12.50
2022-08-21T00:26:56.728Z,12.75
2022-08-21T00:29:24.984Z,12.88
2022-08-21T00:31:53.043Z,12.75
2022-08-21T00:34:21.128Z,12.72
2022-08-21T00:36:50.657Z,12.80
2022-08-21T00:39:18.604Z,13.11
2022-08-21T00:41:47.116Z,12.95
2022-08-21T00:44:16.377Z,12.67
2022-08-21T00:46:45.877Z,12.56
2022-08-21T00:49:15.517Z,12.66
2022-08-21T00:51:49.473Z,12.69
2022-08-21T00:54:19.695Z,12.51
2022-08-21T00:56:50.983Z,12.78
2022-08-21T00:59:21.366Z,13.12
2022-08-21T01:01:50.520Z,13.13
2022-08-21T01:04:18.857Z,13.02
2022-08-21T01:06:46.979Z,13.09
2022-08-21T01:09:16.131Z,12.90
2022-08-21T01:11:45.438Z,12.59
2022-08-21T01:14:15.821Z,12.57
2022-08-21T01:16:48.210Z,12.70
2022-08-21T01:19:18.381Z,12.85
2022-08-21T01:21:47.690Z,12.43
2022-08-21T01:24:16.745Z,12.34
2022-08-21T01:26:45.962Z,12.13
2022-08-21T01:29:18.819Z,12.19
2022-08-21T01:31:46.945Z,12.30
2022-08-21T01:34:17.519Z,12.15
2022-08-21T01:36:48.197Z,11.98
2022-08-21T01:39:17.007Z,12.16
2022-08-21T01:41:45.640Z,12.06
2022-08-21T01:44:13.552Z,12.06
2022-08-21T01:46:41.690Z,12.19
2022-08-21T01:49:09.936Z,12.15
2022-08-21T01:51:37.989Z,12.22
2022-08-21T01:54:07.464Z,12.27
2022-08-21T01:56:39.454Z,12.27
2022-08-21T01:59:07.629Z,11.99
2022-08-21T02:01:35.979Z,12.01
2022-08-21T02:04:04.345Z,12.02
2022-08-21T02:06:32.344Z,11.96
2022-08-21T02:09:00.745Z,12.65
2022-08-21T02:11:33.137Z,12.67
2022-08-21T02:14:08.067Z,12.49
2022-08-21T02:16:36.119Z,12.48
2022-08-21T02:19:05.112Z,12.60
2022-08-21T02:21:34.275Z,12.77
2022-08-21T02:24:02.180Z,12.78
2022-08-21T02:26:31.676Z,12.86
2022-08-21T02:28:59.931Z,12.58
2022-08-21T02:31:28.006Z,12.56
2022-08-21T02:33:56.050Z,12.60
2022-08-21T02:36:24.044Z,12.83
2022-08-21T02:38:52.034Z,12.66
2022-08-21T02:41:22.815Z,12.79
2022-08-21T02:43:53.296Z,12.90
2022-08-21T02:46:22.501Z,12.77
2022-08-21T02:48:51.439Z,12.74
2022-08-21T02:51:23.643Z,12.75
2022-08-21T02:53:52.086Z,12.68
2022-08-21T02:56:23.457Z,12.66
2022-08-21T02:58:54.470Z,12.79
2022-08-21T03:01:22.927Z,12.58
2022-08-21T03:03:51.976Z,12.66
2022-08-21T03:07:40.911Z,12.51
2022-08-21T03:10:08.569Z,12.50
2022-08-21T03:12:37.198Z,12.42
2022-08-21T03:15:09.115Z,12.34
2022-08-21T03:17:37.250Z,12.35
2022-08-21T03:20:07.842Z,12.41
2022-08-21T03:22:36.315Z,12.38
2022-08-21T03:25:06.313Z,12.49
2022-08-21T03:27:35.514Z,12.36
2022-08-21T03:30:10.674Z,12.31
2022-08-21T03:32:39.293Z,12.43
2022-08-21T03:35:07.735Z,12.49
2022-08-21T03:37:35.811Z,12.44
2022-08-21T03:40:05.725Z,12.52
2022-08-21T03:42:36.056Z,12.47
2022-08-21T03:45:05.509Z,12.58
2022-08-21T03:47:34.895Z,12.57
2022-08-21T03:50:03.292Z,12.60
2022-08-21T03:52:31.394Z,12.48
2022-08-21T03:54:59.337Z,12.66
2022-08-21T03:57:27.294Z,12.63
2022-08-21T03:59:55.249Z,12.75
2022-08-21T04:02:23.905Z,12.74
2022-08-21T04:04:53.118Z,12.82
2022-08-21T04:07:20.996Z,12.78
2022-08-21T04:09:51.067Z,12.89
2022-08-21T04:12:20.169Z,12.83
2022-08-21T04:14:48.148Z,12.96
2022-08-21T04:17:17.114Z,12.78
2022-08-21T04:19:49.307Z,12.77
2022-08-21T04:22:23.463Z,12.73
2022-08-21T04:24:51.506Z,12.73
2022-08-21T04:27:19.553Z,12.57
2022-08-21T04:29:47.619Z,12.58
2022-08-21T04:32:23.988Z,12.61
2022-08-21T04:34:52.001Z,12.62
2022-08-21T04:37:20.131Z,12.65
2022-08-21T04:39:53.544Z,12.54
2022-08-21T04:42:24.495Z,12.64
2022-08-21T04:44:54.775Z,12.63
2022-08-21T04:47:24.593Z,12.76
2022-08-21T04:50:12.501Z,12.67
2022-08-21T04:52:43.850Z,12.69
2022-08-21T04:55:13.443Z,12.86
2022-08-21T04:57:49.244Z,12.92
2022-08-21T05:00:20.629Z,12.92
2022-08-21T05:02:49.836Z,12.94
2022-08-21T05:05:19.189Z,12.97
2022-08-21T05:07:48.444Z,13.04
2022-08-21T05:10:18.263Z,13.08
2022-08-21T05:12:46.993Z,13.13
2022-08-21T05:15:15.641Z,13.11
2022-08-21T05:17:44.096Z,13.09
2022-08-21T05:20:21.952Z,13.19
2022-08-21T05:22:51.201Z,13.35
2022-08-21T05:25:23.798Z,13.38
2022-08-21T05:27:52.636Z,13.55
2022-08-21T05:30:21.814Z,13.62
2022-08-21T05:32:49.759Z,13.77
2022-08-21T05:35:17.763Z,13.71
2022-08-21T05:37:45.891Z,13.87
2022-08-21T05:40:22.196Z,13.93
2022-08-21T05:42:54.461Z,14.05
2022-08-21T05:45:41.266Z,14.21
2022-08-21T05:48:14.075Z,14.37
2022-08-21T05:50:42.933Z,14.31
2022-08-21T05:53:11.813Z,14.44
2022-08-21T05:55:45.196Z,14.60
2022-08-21T05:58:17.442Z,14.70
2022-08-21T06:00:48.630Z,14.88
2022-08-21T06:03:20.246Z,14.89
2022-08-21T06:05:48.922Z,15.04
2022-08-21T06:08:17.834Z,15.16
2022-08-21T06:10:47.729Z,15.64
2022-08-21T06:13:19.238Z,16.25
2022-08-21T06:15:47.581Z,17.13
2022-08-21T06:18:15.991Z,17.88
2022-08-21T06:20:44.483Z,18.08
2022-08-21T06:23:12.542Z,18.51
2022-08-21T06:25:40.881Z,18.87
2022-08-21T06:28:12.447Z,19.17
2022-08-21T06:30:42.844Z,19.59
2022-08-21T06:33:11.742Z,19.79
2022-08-21T06:35:41.400Z,19.63
2022-08-21T06:38:10.125Z,19.81
2022-08-21T06:40:39.015Z,20.31
2022-08-21T06:43:15.001Z,20.41
2022-08-21T06:45:45.603Z,20.75
2022-08-21T06:48:18.440Z,20.63
2022-08-21T06:50:48.002Z,20.97
2022-08-21T06:53:17.922Z,21.56
2022-08-21T06:55:46.503Z,21.00
2022-08-21T06:58:14.979Z,21.64
2022-08-21T07:00:47.006Z,21.93
2022-08-21T07:03:24.348Z,22.34
2022-08-21T07:05:52.510Z,22.43
2022-08-21T07:08:20.640Z,22.43
2022-08-21T07:10:49.401Z,21.36
2022-08-21T07:13:18.147Z,21.63
2022-08-21T07:15:47.706Z,21.59
2022-08-21T07:18:15.825Z,22.11
2022-08-21T07:20:44.272Z,21.63
2022-08-21T07:23:19.381Z,22.13
2022-08-21T07:25:47.314Z,22.38
2022-08-21T07:28:17.270Z,21.39
2022-08-21T07:30:45.157Z,22.27
2022-08-21T07:33:15.472Z,22.79
2022-08-21T07:35:49.547Z,22.71
2022-08-21T07:38:17.632Z,23.08
2022-08-21T07:40:45.977Z,22.66
2022-08-21T07:43:14.070Z,22.67
2022-08-21T07:45:42.201Z,22.60
2022-08-21T07:48:10.888Z,23.41
2022-08-21T07:50:40.819Z,23.11
2022-08-21T07:53:08.860Z,23.40
2022-08-21T07:55:37.396Z,22.98
2022-08-21T07:58:07.132Z,23.25
2022-08-21T08:00:35.655Z,22.79
2022-08-21T08:03:03.820Z,22.25
2022-08-21T08:05:33.052Z,22.97
2022-08-21T08:08:02.280Z,23.30
2022-08-21T08:10:30.270Z,22.86
2022-08-21T08:12:59.622Z,23.59
2022-08-21T08:15:30.289Z,23.98
2022-08-21T08:17:59.640Z,24.44
2022-08-21T08:20:28.045Z,24.27
2022-08-21T08:22:56.579Z,24.68
2022-08-21T08:25:27.105Z,24.67
2022-08-21T08:27:55.191Z,24.45
2022-08-21T08:30:24.767Z,24.73
2022-08-21T08:32:53.994Z,25.28
2022-08-21T08:35:24.282Z,24.85
2022-08-21T08:37:52.913Z,25.55
2022-08-21T08:40:31.220Z,24.35
2022-08-21T08:42:59.266Z,25.41
2022-08-21T08:45:28.592Z,25.27
2022-08-21T08:48:04.617Z,24.88
2022-08-21T08:50:42.609Z,25.09
2022-08-21T08:53:26.501Z,25.44
2022-08-21T08:55:56.812Z,25.37
2022-08-21T08:58:27.257Z,26.01
2022-08-21T09:00:57.082Z,25.67
2022-08-21T09:03:27.936Z,26.05
2022-08-21T09:06:14.408Z,25.90
2022-08-21T09:08:52.178Z,25.92
2022-08-21T09:11:32.861Z,25.85
2022-08-21T09:14:13.005Z,25.92
2022-08-21T09:16:50.924Z,26.01
2022-08-21T09:19:38.191Z,25.32
2022-08-21T09:22:21.199Z,24.98
2022-08-21T09:24:55.576Z,26.14
2022-08-21T09:27:25.900Z,25.68
2022-08-21T09:29:58.481Z,25.98
2022-08-21T09:32:37.528Z,24.67
2022-08-21T09:35:10.370Z,25.86
2022-08-21T09:37:50.855Z,26.19
2022-08-21T09:40:34.582Z,26.83
2022-08-21T09:43:06.101Z,26.16
2022-08-21T09:45:35.803Z,26.29
2022-08-21T09:48:16.270Z,26.39
2022-08-21T09:50:45.286Z,26.79
2022-08-21T09:53:22.245Z,26.77
2022-08-21T09:56:24.313Z,26.21
2022-08-21T09:58:56.461Z,26.99
2022-08-21T10:01:27.257Z,27.42
2022-08-21T10:04:05.693Z,26.27
2022-08-21T10:06:35.894Z,25.44
2022-08-21T10:09:08.250Z,25.06
2022-08-21T10:11:36.633Z,26.62
2022-08-21T10:14:15.752Z,26.66
2022-08-21T10:16:55.444Z,26.04
2022-08-21T10:19:28.299Z,26.14
2022-08-21T10:22:04.653Z,24.82
2022-08-21T10:24:38.612Z,23.84
2022-08-21T10:27:17.241Z,23.76
2022-08-21T10:29:57.912Z,23.76
2022-08-21T10:32:39.772Z,24.98
2022-08-21T10:35:14.722Z,26.85
2022-08-21T10:38:01.439Z,27.85
2022-08-21T10:40:36.333Z,27.19
2022-08-21T10:43:24.038Z,27.83
2022-08-21T10:46:13.442Z,25.73
2022-08-21T10:48:48.859Z,26.43
2022-08-21T10:51:28.904Z,25.02
2022-08-21T10:54:10.896Z,25.31
2022-08-21T10:56:43.978Z,26.96
2022-08-21T10:59:27.702Z,28.79
2022-08-21T11:02:03.255Z,27.83
2022-08-21T11:04:48.995Z,28.28
2022-08-21T11:07:23.282Z,29.59
2022-08-21T11:09:56.329Z,29.92
2022-08-21T11:12:30.175Z,29.18
2022-08-21T11:15:04.210Z,29.91
2022-08-21T11:17:45.647Z,29.12
2022-08-21T11:20:24.166Z,26.02
2022-08-21T11:23:03.159Z,25.88
2022-08-21T11:25:37.249Z,26.32
2022-08-21T11:28:14.440Z,25.25
2022-08-21T11:30:52.620Z,24.59
2022-08-21T11:33:34.040Z,24.60
2022-08-21T11:36:10.586Z,24.82
2022-08-21T11:38:44.214Z,24.29
2022-08-21T11:41:30.084Z,24.14
2022-08-21T11:44:09.234Z,24.00
2022-08-21T11:46:44.426Z,24.02
2022-08-21T11:49:47.655Z,24.39
2022-08-21T11:52:21.269Z,24.14
2022-08-21T11:55:09.368Z,24.15
2022-08-21T11:57:48.776Z,23.92
2022-08-21T12:00:24.499Z,23.61
2022-08-21T12:02:56.513Z,25.43
2022-08-21T12:05:36.145Z,25.38
2022-08-21T12:08:09.302Z,25.15
2022-08-21T12:10:41.940Z,24.31
2022-08-21T12:13:14.651Z,23.77
2022-08-21T12:15:43.554Z,23.68
2022-08-21T12:18:24.974Z,23.66
2022-08-21T12:21:07.147Z,23.35
2022-08-21T12:23:45.810Z,23.50
2022-08-21T12:26:26.198Z,23.87
2022-08-21T12:29:18.144Z,24.08
2022-08-21T12:31:59.939Z,24.08
2022-08-21T12:34:36.473Z,23.63
2022-08-21T12:37:17.581Z,23.78
2022-08-21T12:39:50.840Z,23.58
2022-08-21T12:42:23.459Z,23.09
2022-08-21T12:44:56.119Z,22.98
2022-08-21T12:47:32.502Z,22.83
2022-08-21T12:50:06.798Z,22.73
2022-08-21T12:52:41.942Z,22.46
2022-08-21T12:55:14.993Z,22.33
2022-08-21T12:57:44.219Z,22.04
2022-08-21T13:00:15.760Z,22.29
2022-08-21T13:02:49.362Z,22.65
2022-08-21T13:05:24.018Z,23.08
2022-08-21T13:07:55.545Z,23.58
2022-08-21T13:10:26.391Z,24.17
2022-08-21T13:12:58.225Z,23.47
2022-08-21T13:15:33.308Z,24.04
2022-08-21T13:18:04.496Z,23.55
2022-08-21T13:20:35.368Z,24.31
2022-08-21T13:23:10.233Z,23.73
2022-08-21T13:25:39.690Z,24.03
2022-08-21T13:28:10.048Z,23.84
2022-08-21T13:30:44.304Z,24.60
2022-08-21T13:33:14.592Z,25.66
2022-08-21T13:35:51.985Z,27.48
2022-08-21T13:38:27.529Z,26.86
2022-08-21T13:40:59.124Z,26.18
2022-08-21T13:43:32.489Z,26.08
2022-08-21T13:46:03.224Z,27.63
2022-08-21T13:48:36.561Z,27.47
2022-08-21T13:51:06.118Z,27.97
2022-08-21T13:53:38.753Z,29.60
2022-08-21T13:56:07.479Z,29.11
2022-08-21T13:58:48.639Z,28.29
2022-08-21T14:01:23.404Z,28.03
2022-08-21T14:03:54.329Z,27.67
2022-08-21T14:06:24.992Z,28.56
2022-08-21T14:08:58.731Z,27.23
2022-08-21T14:11:27.395Z,26.91
2022-08-21T14:14:01.132Z,28.23
2022-08-21T14:16:43.224Z,28.57
2022-08-21T14:19:19.540Z,28.77
2022-08-21T14:21:47.953Z,27.66
2022-08-21T14:24:28.941Z,27.50
2022-08-21T14:27:00.472Z,27.42
2022-08-21T14:29:34.613Z,27.76
2022-08-21T14:32:24.609Z,27.83
2022-08-21T14:34:54.601Z,27.15
2022-08-21T14:37:23.098Z,27.60
2022-08-21T14:39:53.544Z,27.57
2022-08-21T14:42:22.048Z,27.48
2022-08-21T14:44:50.090Z,29.37
2022-08-21T14:47:18.183Z,29.76
2022-08-21T14:49:46.363Z,28.90
2022-08-21T14:52:14.227Z,30.42
2022-08-21T14:54:42.562Z,29.86
2022-08-21T14:57:14.015Z,30.19
2022-08-21T14:59:42.167Z,29.99
2022-08-21T15:02:10.575Z,27.74
2022-08-21T15:04:38.392Z,27.82
2022-08-21T15:07:06.695Z,27.00
2022-08-21T15:09:35.025Z,27.53
2022-08-21T15:12:04.793Z,28.35
2022-08-21T15:14:36.958Z,27.09
2022-08-21T15:17:06.088Z,26.96
2022-08-21T15:19:34.232Z,26.20
2022-08-21T15:22:02.589Z,26.61
2022-08-21T15:24:30.464Z,26.28
2022-08-21T15:26:58.509Z,26.37
2022-08-21T15:29:33.385Z,26.13
2022-08-21T15:32:16.674Z,25.92
2022-08-21T15:34:44.606Z,25.49
2022-08-21T15:37:12.491Z,25.93
2022-08-21T15:39:41.579Z,25.65
2022-08-21T15:42:10.786Z,24.56
2022-08-21T15:44:40.760Z,24.49
2022-08-21T15:47:14.332Z,24.57
2022-08-21T15:49:45.738Z,25.80
2022-08-21T15:52:13.657Z,25.58
2022-08-21T15:54:41.626Z,26.52
2022-08-21T15:57:12.195Z,26.66
2022-08-21T15:59:42.974Z,25.38
2022-08-21T16:02:17.581Z,25.25
2022-08-21T16:04:45.523Z,25.78
2022-08-21T16:07:13.927Z,25.74
2022-08-21T16:09:41.803Z,25.74
2022-08-21T16:12:11.787Z,25.70
2022-08-21T16:14:39.904Z,25.04
2022-08-21T16:17:08.957Z,25.08
2022-08-21T16:19:39.197Z,25.17
2022-08-21T16:22:07.158Z,24.65
2022-08-21T16:24:36.469Z,24.77
2022-08-21T16:27:08.245Z,24.24
2022-08-21T16:29:39.496Z,24.00
2022-08-21T16:32:08.973Z,23.85
2022-08-21T16:34:41.283Z,24.73
2022-08-21T16:37:09.164Z,24.15
2022-08-21T16:39:37.164Z,24.15
2022-08-21T16:42:07.025Z,23.57
2022-08-21T16:44:35.491Z,23.64
2022-08-21T16:47:05.472Z,23.25
2022-08-21T16:49:33.400Z,23.09
2022-08-21T16:52:02.909Z,22.81
2022-08-21T16:54:31.110Z,22.96
2022-08-21T16:56:59.868Z,23.06
2022-08-21T16:59:27.831Z,22.91
2022-08-21T17:01:56.399Z,22.91
2022-08-21T17:04:25.896Z,22.50
2022-08-21T17:06:54.091Z,22.65
2022-08-21T17:09:23.713Z,22.46
2022-08-21T17:11:52.879Z,22.39
2022-08-21T17:14:24.452Z,22.16
2022-08-21T17:16:55.375Z,22.03
2022-08-21T17:19:24.293Z,21.83
2022-08-21T17:21:52.467Z,21.71
2022-08-21T17:24:20.856Z,21.79
2022-08-21T17:26:50.662Z,21.67
2022-08-21T17:29:21.681Z,21.85
2022-08-21T17:31:49.629Z,21.81
2022-08-21T17:34:17.715Z,21.87
2022-08-21T17:36:46.724Z,21.97
2022-08-21T17:39:22.150Z,21.74
2022-08-21T17:41:58.346Z,21.93
2022-08-21T17:44:27.574Z,21.68
2022-08-21T17:46:57.055Z,21.33
2022-08-21T17:49:33.095Z,21.34
2022-08-21T17:52:01.954Z,21.27
2022-08-21T17:54:30.899Z,21.13
2022-08-21T17:57:01.087Z,21.23
2022-08-21T17:59:29.808Z,21.04
2022-08-21T18:02:01.615Z,20.96
2022-08-21T18:04:30.085Z,20.75
2022-08-21T18:06:58.515Z,20.71
2022-08-21T18:09:28.188Z,20.54
2022-08-21T18:11:58.667Z,20.55
2022-08-21T18:14:31.979Z,20.49
2022-08-21T18:17:00.607Z,20.41
2022-08-21T18:19:28.567Z,20.40
2022-08-21T18:22:00.533Z,20.31
2022-08-21T18:24:30.586Z,20.16
2022-08-21T18:26:58.554Z,20.05
2022-08-21T18:29:28.104Z,19.97
2022-08-21T18:31:56.763Z,19.92
2022-08-21T18:34:28.498Z,19.85
2022-08-21T18:36:57.351Z,19.78
2022-08-21T18:39:36.359Z,19.71
2022-08-21T18:42:10.054Z,19.78
2022-08-21T18:44:40.178Z,19.64
2022-08-21T18:47:12.569Z,19.58
2022-08-21T18:49:42.132Z,19.52
2022-08-21T18:52:10.550Z,19.49
2022-08-21T18:54:45.796Z,19.37
2022-08-21T18:57:17.733Z,19.29
2022-08-21T18:59:47.758Z,19.25
2022-08-21T19:02:16.247Z,19.15
2022-08-21T19:04:45.092Z,19.11
2022-08-21T19:07:14.673Z,19.13
2022-08-21T19:09:56.859Z,19.02
2022-08-21T19:12:31.145Z,18.82
2022-08-21T19:15:01.235Z,18.68
2022-08-21T19:17:30.250Z,18.64
2022-08-21T19:20:03.737Z,18.56
2022-08-21T19:22:31.807Z,18.34
2022-08-21T19:24:59.688Z,18.18
2022-08-21T19:27:28.442Z,18.12
2022-08-21T19:29:57.156Z,17.94
2022-08-21T19:32:26.784Z,17.85
2022-08-21T19:34:55.452Z,17.67
2022-08-21T19:37:26.046Z,17.53
2022-08-21T19:39:54.466Z,17.40
2022-08-21T19:42:28.764Z,17.27
2022-08-21T19:44:59.046Z,17.12
2022-08-21T19:47:31.338Z,16.94
2022-08-21T19:50:03.624Z,16.97
2022-08-21T19:55:35.412Z,16.88
2022-08-21T19:58:03.986Z,16.93
2022-08-21T20:00:32.295Z,16.75
2022-08-21T20:03:02.616Z,16.84
2022-08-21T20:05:39.604Z,16.76
2022-08-21T20:08:11.866Z,16.61
2022-08-21T20:10:50.014Z,16.73
2022-08-21T20:13:36.814Z,16.56
2022-08-21T20:16:09.048Z,16.56
2022-08-21T20:18:41.511Z,16.61
2022-08-21T20:21:10.954Z,16.53
2022-08-21T20:23:43.129Z,16.48
2022-08-21T20:26:18.500Z,16.43
2022-08-21T20:28:50.404Z,16.37
2022-08-21T20:31:19.661Z,16.24
2022-08-21T20:33:49.836Z,16.17
2022-08-21T20:36:17.944Z,15.99
2022-08-21T20:38:48.258Z,15.92
2022-08-21T20:41:21.420Z,16.21
2022-08-21T20:44:17.349Z,16.17
2022-08-21T20:46:45.814Z,16.00
2022-08-21T20:49:20.831Z,15.89
2022-08-21T20:51:52.617Z,15.91
2022-08-21T20:54:26.731Z,15.84
2022-08-21T20:56:58.574Z,15.79
2022-08-21T20:59:44.488Z,15.79
2022-08-21T21:02:23.875Z,15.82
2022-08-21T21:04:57.990Z,15.88
2022-08-21T21:07:33.765Z,16.07
2022-08-21T21:10:04.576Z,16.10
2022-08-21T21:12:36.247Z,16.23
2022-08-21T21:15:14.071Z,16.38
2022-08-21T21:17:45.753Z,16.68
2022-08-21T21:20:22.224Z,16.73
2022-08-21T21:23:00.125Z,16.86
2022-08-21T21:25:40.608Z,16.70
2022-08-21T21:28:13.616Z,16.44
2022-08-21T21:30:46.644Z,16.34
2022-08-21T21:33:16.710Z,16.19
2022-08-21T21:35:50.262Z,16.01
2022-08-21T21:38:24.367Z,16.00
2022-08-21T21:41:07.455Z,15.94
2022-08-21T21:43:52.679Z,16.35
2022-08-21T21:46:48.407Z,16.43
2022-08-21T21:49:34.123Z,16.49
2022-08-21T21:52:15.088Z,16.36
2022-08-21T21:58:34.349Z,16.28
2022-08-21T22:01:11.062Z,16.08
2022-08-21T22:03:48.204Z,15.90
2022-08-21T22:06:23.497Z,15.73
2022-08-21T22:09:05.184Z,15.54
2022-08-21T22:11:55.984Z,15.81
2022-08-21T22:14:33.372Z,15.99
2022-08-21T22:17:08.506Z,15.91
2022-08-21T22:19:42.556Z,15.93
2022-08-21T22:22:16.411Z,15.88
2022-08-21T22:24:51.317Z,15.90
2022-08-21T22:27:24.188Z,15.77
2022-08-21T22:29:55.055Z,15.67
2022-08-21T22:32:27.755Z,15.51
2022-08-21T22:35:03.507Z,15.30
2022-08-21T22:37:36.645Z,15.21
2022-08-21T22:40:08.151Z,15.23
2022-08-21T22:42:36.664Z,15.35
2022-08-21T22:45:12.115Z,15.41
2022-08-21T22:47:48.461Z,15.27
2022-08-21T22:50:21.882Z,15.07
2022-08-21T22:52:55.069Z,14.95
2022-08-21T22:55:29.266Z,15.31
2022-08-21T22:58:04.150Z,15.25
2022-08-21T23:00:45.163Z,15.49
2022-08-21T23:03:23.613Z,15.12
2022-08-21T23:05:52.905Z,14.96
2022-08-21T23:08:28.306Z,14.84
2022-08-21T23:11:03.511Z,14.79
2022-08-21T23:13:41.982Z,14.69
2022-08-21T23:16:23.765Z,14.70
2022-08-21T23:19:03.278Z,15.16
2022-08-21T23:21:42.680Z,15.32
2022-08-21T23:24:35.115Z,14.99
2022-08-21T23:27:14.690Z,14.88
2022-08-21T23:30:05.723Z,15.07
2022-08-21T23:33:00.390Z,14.90
2022-08-21T23:35:51.168Z,14.73
2022-08-21T23:38:32.537Z,14.78
2022-08-21T23:41:11.409Z,14.61
2022-08-21T23:43:54.578Z,14.51
2022-08-21T23:46:38.048Z,14.88
2022-08-21T23:49:18.991Z,15.03
2022-08-21T23:51:55.740Z,15.25
2022-08-21T23:54:31.684Z,15.20
2022-08-21T23:57:11.783Z,15.20
2022-08-21T23:59:53.358Z,15.15
